createdAt,value
2022-08-20T00:01:01.689Z,20.9
2022-08-20T00:01:53.984Z,18.5
2022-08-20T00:02:57.874Z,21.6
2022-08-20T00:03:53.979Z,25.4
2022-08-20T00:04:54.226Z,21.8
2022-08-20T00:06:01.640Z,26.9
2022-08-20T00:06:53.987Z,27.5
2022-08-20T00:07:54.145Z,25.2
2022-08-20T00:08:54.065Z,24.0
2022-08-20T00:09:53.911Z,28.8
2022-08-20T00:10:55.735Z,31.3
2022-08-20T00:11:53.957Z,39.1
2022-08-20T00:12:54.567Z,38.9
2022-08-20T00:13:56.690Z,41.9
2022-08-20T00:14:53.934Z,43.0
2022-08-20T00:15:54.449Z,47.0
2022-08-20T00:16:54.025Z,54.2
2022-08-20T00:17:54.899Z,59.8
2022-08-20T00:18:54.476Z,65.7
2022-08-20T00:19:53.949Z,61.4
2022-08-20T00:20:55.642Z,54.6
2022-08-20T00:21:58.180Z,57.7
2022-08-20T00:22:54.276Z,54.9
2022-08-20T00:23:55.569Z,57.1
2022-08-20T00:24:53.915Z,53.0
2022-08-20T00:25:54.516Z,49.9
2022-08-20T00:26:53.959Z,29.8
2022-08-20T00:27:53.952Z,28.8
2022-08-20T00:29:53.994Z,34.6
2022-08-20T00:30:53.987Z,27.0
2022-08-20T00:31:53.941Z,22.6
2022-08-20T00:32:58.018Z,25.5
2022-08-20T00:33:54.570Z,25.9
2022-08-20T00:34:53.900Z,24.1
2022-08-20T00:35:57.941Z,21.4
2022-08-20T00:36:53.877Z,18.2
2022-08-20T00:37:57.455Z,10.6
2022-08-20T00:38:53.902Z,11.0
2022-08-20T00:39:53.978Z,10.5
2022-08-20T00:40:56.442Z,5.7
2022-08-20T00:41:53.972Z,4.9
2022-08-20T00:42:58.245Z,3.8
2022-08-20T00:44:09.288Z,2.2
2022-08-20T00:44:53.857Z,2.2
2022-08-20T00:45:56.565Z,3.4
2022-08-20T00:46:54.760Z,1.9
2022-08-20T00:47:55.757Z,1.6
2022-08-20T00:48:56.320Z,3.7
2022-08-20T00:49:53.874Z,2.2
2022-08-20T00:50:57.997Z,2.3
2022-08-20T00:51:57.788Z,2.6
2022-08-20T00:52:54.728Z,3.1
2022-08-20T00:53:56.542Z,1.3
2022-08-20T00:54:58.855Z,1.2
2022-08-20T00:55:54.024Z,1.5
2022-08-20T00:57:03.717Z,2.6
2022-08-20T00:58:01.369Z,2.9
2022-08-20T00:58:55.211Z,2.3
2022-08-20T01:00:53.921Z,3.6
2022-08-20T01:01:55.138Z,1.4
2022-08-20T01:02:54.935Z,1.1
2022-08-20T01:03:56.727Z,1.3
2022-08-20T01:04:55.417Z,1.7
2022-08-20T01:05:54.179Z,1.5
2022-08-20T01:06:53.960Z,1.3
2022-08-20T01:07:55.788Z,1.3
2022-08-20T01:08:54.207Z,1.2
2022-08-20T01:11:05.121Z,1.6
2022-08-20T01:11:55.386Z,1.8
2022-08-20T01:12:59.208Z,1.4
2022-08-20T01:13:54.947Z,1.0
2022-08-20T01:14:55.794Z,0.8
2022-08-20T01:15:56.571Z,1.5
2022-08-20T01:16:58.782Z,1.4
2022-08-20T01:17:58.849Z,2.2
2022-08-20T01:18:55.301Z,1.9
2022-08-20T01:20:58.424Z,1.5
2022-08-20T01:26:56.080Z,1.9
2022-08-20T01:27:56.185Z,2.5
2022-08-20T01:28:58.095Z,1.8
2022-08-20T01:29:54.675Z,3.0
2022-08-20T01:30:54.819Z,2.0
2022-08-20T01:31:54.047Z,2.0
2022-08-20T01:32:53.935Z,2.8
2022-08-20T01:33:56.477Z,2.9
2022-08-20T01:34:53.896Z,1.6
2022-08-20T01:35:55.122Z,2.1
2022-08-20T01:36:57.582Z,1.8
2022-08-20T01:37:54.900Z,1.6
2022-08-20T01:38:54.882Z,0.8
2022-08-20T01:39:54.388Z,2.2
2022-08-20T01:40:59.651Z,2.4
2022-08-20T01:42:59.247Z,1.7
2022-08-20T01:44:53.989Z,2.3
2022-08-20T01:45:54.679Z,1.9
2022-08-20T01:46:57.836Z,1.8
2022-08-20T01:49:59.975Z,1.3
2022-08-20T01:51:05.187Z,1.7
2022-08-20T01:51:55.748Z,2.0
2022-08-20T01:53:56.091Z,2.5
2022-08-20T01:54:53.919Z,2.5
2022-08-20T01:55:53.925Z,2.7
2022-08-20T01:56:58.439Z,3.7
2022-08-20T01:57:54.059Z,1.7
2022-08-20T01:58:58.842Z,1.8
2022-08-20T02:01:55.006Z,1.6
2022-08-20T02:06:58.309Z,3.9
2022-08-20T02:15:54.561Z,4.5
2022-08-20T02:21:59.371Z,1.9
2022-08-20T02:22:57.162Z,3.7
2022-08-20T02:23:53.870Z,3.0
2022-08-20T02:24:54.311Z,2.7
2022-08-20T02:25:54.055Z,3.0
2022-08-20T02:26:54.009Z,3.8
2022-08-20T02:27:55.755Z,4.6
2022-08-20T02:28:55.922Z,3.9
2022-08-20T02:29:54.555Z,2.7
2022-08-20T02:30:55.624Z,4.1
2022-08-20T02:32:23.494Z,4.1
2022-08-20T02:34:21.619Z,4.8
2022-08-20T02:34:53.801Z,3.8
2022-08-20T02:35:57.019Z,3.4
2022-08-20T02:36:55.162Z,5.1
2022-08-20T02:37:55.416Z,3.8
2022-08-20T02:38:53.954Z,3.7
2022-08-20T02:39:53.859Z,4.5
2022-08-20T02:40:55.648Z,5.0
2022-08-20T02:41:54.624Z,5.2
2022-08-20T02:42:54.745Z,5.3
2022-08-20T02:43:53.852Z,7.5
2022-08-20T02:44:54.532Z,6.6
2022-08-20T02:45:53.773Z,5.5
2022-08-20T02:46:53.888Z,3.7
2022-08-20T02:47:54.543Z,4.1
2022-08-20T02:48:53.828Z,5.9
2022-08-20T02:49:54.506Z,4.2
2022-08-20T02:50:57.014Z,3.8
2022-08-20T02:51:53.827Z,4.1
2022-08-20T02:52:55.549Z,2.1
2022-08-20T02:53:54.426Z,3.1
2022-08-20T02:54:53.953Z,1.1
2022-08-20T02:55:54.082Z,2.4
2022-08-20T02:56:54.043Z,2.5
2022-08-20T02:57:55.560Z,3.7
2022-08-20T02:58:53.851Z,2.8
2022-08-20T02:59:53.982Z,3.2
2022-08-20T03:00:56.926Z,3.7
2022-08-20T03:01:59.132Z,4.2
2022-08-20T03:02:54.113Z,5.1
2022-08-20T03:03:57.224Z,4.3
2022-08-20T03:04:53.877Z,6.2
2022-08-20T03:05:57.303Z,5.5
2022-08-20T03:06:53.792Z,7.8
2022-08-20T03:07:56.960Z,10.2
2022-08-20T03:08:54.441Z,10.5
2022-08-20T03:09:53.949Z,6.5
2022-08-20T03:10:53.953Z,7.6
2022-08-20T03:11:54.437Z,9.8
2022-08-20T03:12:54.494Z,11.9
2022-08-20T03:13:53.911Z,7.6
2022-08-20T03:14:53.793Z,6.8
2022-08-20T03:15:58.807Z,4.2
2022-08-20T03:16:53.832Z,4.9
2022-08-20T03:17:54.107Z,5.0
2022-08-20T03:18:53.972Z,4.4
2022-08-20T03:19:53.860Z,3.7
2022-08-20T03:20:54.074Z,3.3
2022-08-20T03:21:54.145Z,2.4
2022-08-20T03:22:54.395Z,3.5
2022-08-20T03:23:53.823Z,3.5
2022-08-20T03:24:54.070Z,3.5
2022-08-20T03:25:53.975Z,3.5
2022-08-20T03:26:53.902Z,4.2
2022-08-20T03:27:54.811Z,3.3
2022-08-20T03:28:53.967Z,3.2
2022-08-20T03:29:53.839Z,3.3
2022-08-20T03:30:56.132Z,5.3
2022-08-20T03:31:53.842Z,3.7
2022-08-20T03:32:55.112Z,5.4
2022-08-20T03:33:53.986Z,3.3
2022-08-20T03:34:53.792Z,6.1
2022-08-20T03:35:53.773Z,3.4
2022-08-20T03:36:53.766Z,3.1
2022-08-20T03:37:54.685Z,4.4
2022-08-20T03:38:53.917Z,3.1
2022-08-20T03:39:53.879Z,3.1
2022-08-20T03:40:54.085Z,5.2
2022-08-20T03:41:53.824Z,2.1
2022-08-20T03:42:54.117Z,4.8
2022-08-20T03:43:54.882Z,5.3
2022-08-20T03:44:58.872Z,4.6
2022-08-20T03:45:53.847Z,4.3
2022-08-20T03:46:54.535Z,3.6
2022-08-20T03:47:55.201Z,5.3
2022-08-20T03:49:00.310Z,3.3
2022-08-20T03:49:58.307Z,5.6
2022-08-20T03:50:53.764Z,4.6
2022-08-20T03:51:57.974Z,3.5
2022-08-20T03:52:54.843Z,5.9
2022-08-20T03:53:53.722Z,4.6
2022-08-20T03:54:53.753Z,4.2
2022-08-20T03:56:00.449Z,3.2
2022-08-20T03:56:53.807Z,5.8
2022-08-20T03:59:54.912Z,5.8
2022-08-20T04:00:54.442Z,5.6
2022-08-20T04:01:54.894Z,4.0
2022-08-20T04:05:54.305Z,6.8
2022-08-20T04:06:54.082Z,6.5
2022-08-20T04:07:53.835Z,6.9
2022-08-20T04:08:54.505Z,5.4
2022-08-20T04:10:54.909Z,5.7
2022-08-20T04:13:53.952Z,6.8
2022-08-20T04:14:54.071Z,7.3
2022-08-20T04:15:55.711Z,6.8
2022-08-20T04:16:53.726Z,10.4
2022-08-20T04:17:54.374Z,8.6
2022-08-20T04:18:56.243Z,10.8
2022-08-20T04:19:53.795Z,6.6
2022-08-20T04:20:55.541Z,8.8
2022-08-20T04:21:53.883Z,6.7
2022-08-20T04:22:58.431Z,5.6
2022-08-20T04:23:53.733Z,6.5
2022-08-20T04:24:53.823Z,5.1
2022-08-20T04:25:56.615Z,14.0
2022-08-20T04:26:55.065Z,15.4
2022-08-20T04:27:53.767Z,7.0
2022-08-20T04:28:55.965Z,7.2
2022-08-20T04:29:53.720Z,7.6
2022-08-20T04:30:54.200Z,6.8
2022-08-20T04:31:53.806Z,7.3
2022-08-20T04:32:55.516Z,11.4
2022-08-20T04:34:53.813Z,12.4
2022-08-20T04:35:54.929Z,7.5
2022-08-20T04:36:53.785Z,11.5
2022-08-20T04:38:01.600Z,10.7
2022-08-20T04:38:53.735Z,7.8
2022-08-20T04:40:03.119Z,10.2
2022-08-20T04:40:54.368Z,9.4
2022-08-20T04:41:53.785Z,8.7
2022-08-20T04:42:54.030Z,13.4
2022-08-20T04:43:55.336Z,10.6
2022-08-20T04:44:53.739Z,8.7
2022-08-20T04:45:55.501Z,12.4
2022-08-20T04:46:53.771Z,8.1
2022-08-20T04:47:54.109Z,9.8
2022-08-20T04:48:54.046Z,9.5
2022-08-20T04:50:54.656Z,12.1
2022-08-20T04:51:54.858Z,10.6
2022-08-20T04:52:53.687Z,11.6
2022-08-20T04:53:54.825Z,8.5
2022-08-20T04:54:56.347Z,9.1
2022-08-20T04:55:55.607Z,10.3
2022-08-20T04:57:54.774Z,15.7
2022-08-20T04:58:55.700Z,11.7
2022-08-20T04:59:58.931Z,13.4
2022-08-20T05:00:56.604Z,12.0
2022-08-20T05:01:53.688Z,10.7
2022-08-20T05:02:53.683Z,14.0
2022-08-20T05:03:55.197Z,10.4
2022-08-20T05:04:53.706Z,11.7
2022-08-20T05:05:54.460Z,16.0
2022-08-20T05:06:53.770Z,9.9
2022-08-20T05:07:53.839Z,12.8
2022-08-20T05:10:58.121Z,17.8
2022-08-20T05:11:53.713Z,18.3
2022-08-20T05:12:57.097Z,13.8
2022-08-20T05:13:54.104Z,14.1
2022-08-20T05:14:55.179Z,12.3
2022-08-20T05:15:54.179Z,17.5
2022-08-20T05:18:00.868Z,13.3
2022-08-20T05:19:54.082Z,17.3
2022-08-20T05:21:53.821Z,11.9
2022-08-20T05:22:56.329Z,13.8
2022-08-20T05:23:54.047Z,15.2
2022-08-20T05:24:53.961Z,13.1
2022-08-20T05:25:53.717Z,12.4
2022-08-20T05:26:56.157Z,10.4
2022-08-20T05:28:58.372Z,13.0
2022-08-20T05:30:54.797Z,18.2
2022-08-20T05:31:54.202Z,15.4
2022-08-20T05:32:53.676Z,14.4
2022-08-20T05:33:56.982Z,16.9
2022-08-20T05:34:54.801Z,17.7
2022-08-20T05:35:55.564Z,18.4
2022-08-20T05:36:54.014Z,16.0
2022-08-20T05:37:54.452Z,14.1
2022-08-20T05:38:54.999Z,15.9
2022-08-20T05:39:53.938Z,18.9
2022-08-20T05:40:53.997Z,11.6
2022-08-20T05:41:53.752Z,13.7
2022-08-20T05:42:54.042Z,16.9
2022-08-20T05:44:53.981Z,12.9
2022-08-20T05:45:56.517Z,12.7
2022-08-20T05:47:56.633Z,13.3
2022-08-20T05:51:53.805Z,20.3
2022-08-20T05:54:55.711Z,12.4
2022-08-20T05:55:54.812Z,18.4
2022-08-20T05:58:00.470Z,12.3
2022-08-20T05:59:53.804Z,18.3
2022-08-20T06:03:03.042Z,18.3
2022-08-20T06:04:56.294Z,26.4
2022-08-20T06:05:53.694Z,20.1
2022-08-20T06:08:07.113Z,19.7
2022-08-20T06:08:53.943Z,16.6
2022-08-20T06:10:53.986Z,13.5
2022-08-20T06:11:53.670Z,15.4
2022-08-20T06:12:53.670Z,13.9
2022-08-20T06:13:53.645Z,14.2
2022-08-20T06:14:53.724Z,20.9
2022-08-20T06:16:57.266Z,14.8
2022-08-20T06:17:58.447Z,16.6
2022-08-20T06:18:53.824Z,18.5
2022-08-20T06:19:53.620Z,18.8
2022-08-20T06:24:53.914Z,16.5
2022-08-20T06:25:53.972Z,16.9
2022-08-20T06:26:58.862Z,16.8
2022-08-20T06:27:53.703Z,14.0
2022-08-20T06:28:54.290Z,15.3
2022-08-20T06:29:54.092Z,15.1
2022-08-20T06:30:53.707Z,13.4
2022-08-20T06:31:54.536Z,13.7
2022-08-20T06:33:53.702Z,11.5
2022-08-20T06:34:54.148Z,13.4
2022-08-20T06:35:53.831Z,18.8
2022-08-20T06:36:53.665Z,18.3
2022-08-20T06:37:55.142Z,14.9
2022-08-20T06:38:55.084Z,12.9
2022-08-20T06:39:54.254Z,16.4
2022-08-20T06:40:53.662Z,13.9
2022-08-20T06:41:55.795Z,17.1
2022-08-20T06:42:53.884Z,15.1
2022-08-20T06:43:54.156Z,15.6
2022-08-20T06:44:53.636Z,15.9
2022-08-20T06:45:56.491Z,16.8
2022-08-20T06:46:57.133Z,20.8
2022-08-20T06:47:56.056Z,16.5
2022-08-20T06:49:53.626Z,12.3
2022-08-20T06:51:53.630Z,16.1
2022-08-20T06:53:53.759Z,13.6
2022-08-20T06:55:56.354Z,16.1
2022-08-20T06:59:56.039Z,15.4
2022-08-20T07:01:56.700Z,12.3
2022-08-20T07:02:53.640Z,11.3
2022-08-20T07:03:54.467Z,14.1
2022-08-20T07:04:55.899Z,18.7
2022-08-20T07:05:53.690Z,15.2
2022-08-20T07:06:54.618Z,18.2
2022-08-20T07:07:53.675Z,18.2
2022-08-20T07:08:55.933Z,15.5
2022-08-20T07:10:00.843Z,15.8
2022-08-20T07:10:53.824Z,16.5
2022-08-20T07:12:53.864Z,21.7
2022-08-20T07:13:53.606Z,23.1
2022-08-20T07:14:53.590Z,18.9
2022-08-20T07:15:53.975Z,20.0
2022-08-20T07:18:00.921Z,21.6
2022-08-20T07:19:53.601Z,21.3
2022-08-20T07:21:53.805Z,20.3
2022-08-20T07:22:53.752Z,21.1
2022-08-20T07:24:53.800Z,20.5
2022-08-20T07:25:55.887Z,21.9
2022-08-20T07:26:56.831Z,25.1
2022-08-20T07:27:53.791Z,31.2
2022-08-20T07:30:03.164Z,34.1
2022-08-20T07:31:12.168Z,30.0
2022-08-20T07:32:53.783Z,25.2
2022-08-20T07:35:53.687Z,26.1
2022-08-20T07:37:55.092Z,25.8
2022-08-20T07:38:54.533Z,26.7
2022-08-20T07:42:03.063Z,29.6
2022-08-20T07:42:56.177Z,30.0
2022-08-20T07:43:53.626Z,35.8
2022-08-20T07:44:53.667Z,30.3
2022-08-20T07:45:55.961Z,30.7
2022-08-20T07:46:53.639Z,30.6
2022-08-20T07:47:54.651Z,28.8
2022-08-20T07:48:53.639Z,31.4
2022-08-20T07:49:53.563Z,26.5
2022-08-20T07:53:54.366Z,26.9
2022-08-20T07:54:53.562Z,29.7
2022-08-20T07:56:54.281Z,35.2
2022-08-20T07:57:53.669Z,35.3
2022-08-20T07:58:56.955Z,38.7
2022-08-20T08:00:53.925Z,43.7
2022-08-20T08:01:54.004Z,41.6
2022-08-20T08:02:53.693Z,41.7
2022-08-20T08:03:53.950Z,32.1
2022-08-20T08:04:53.811Z,31.4
2022-08-20T08:05:54.048Z,29.1
2022-08-20T08:06:54.217Z,27.3
2022-08-20T08:09:54.623Z,33.7
2022-08-20T08:11:57.625Z,38.4
2022-08-20T08:13:54.749Z,34.3
2022-08-20T08:14:56.501Z,34.8
2022-08-20T08:15:57.649Z,35.6
2022-08-20T08:16:57.522Z,45.3
2022-08-20T08:17:57.343Z,50.2
2022-08-20T08:18:58.575Z,54.3
2022-08-20T08:19:53.555Z,68.3
2022-08-20T08:20:55.234Z,71.2
2022-08-20T08:21:53.616Z,69.4
2022-08-20T08:22:54.013Z,72.1
2022-08-20T08:23:53.747Z,40.9
2022-08-20T08:24:57.620Z,36.1
2022-08-20T08:25:53.683Z,20.9
2022-08-20T08:26:53.575Z,15.1
2022-08-20T08:27:53.538Z,14.0
2022-08-20T08:28:53.512Z,13.4
2022-08-20T08:29:54.765Z,15.1
2022-08-20T08:30:53.565Z,19.1
2022-08-20T08:31:53.558Z,20.6
2022-08-20T08:38:54.912Z,24.3
2022-08-20T08:42:58.576Z,18.6
2022-08-20T08:44:54.756Z,20.5
2022-08-20T08:46:01.644Z,21.0
2022-08-20T08:47:01.231Z,19.5
2022-08-20T08:47:56.296Z,26.1
2022-08-20T08:50:57.623Z,17.0
2022-08-20T08:53:00.543Z,18.1
2022-08-20T08:59:00.839Z,40.3
2022-08-20T09:01:57.000Z,35.5
2022-08-20T09:03:07.863Z,31.0
2022-08-20T09:03:53.671Z,31.0
2022-08-20T09:04:56.913Z,32.9
2022-08-20T09:08:59.222Z,30.7
2022-08-20T09:09:54.196Z,30.7
2022-08-20T09:12:54.192Z,50.1
2022-08-20T09:13:55.441Z,44.0
2022-08-20T09:14:53.660Z,39.2
2022-08-20T09:15:53.609Z,38.6
2022-08-20T09:16:53.767Z,32.6
2022-08-20T09:17:53.583Z,32.0
2022-08-20T09:18:54.056Z,28.0
2022-08-20T09:22:53.838Z,27.6
2022-08-20T09:24:53.859Z,27.2
2022-08-20T09:25:53.543Z,25.5
2022-08-20T09:30:53.601Z,27.3
2022-08-20T09:32:06.074Z,29.5
2022-08-20T09:32:54.017Z,29.5
2022-08-20T09:33:53.933Z,31.7
2022-08-20T09:34:57.019Z,30.5
2022-08-20T09:35:53.588Z,35.0
2022-08-20T09:36:53.548Z,33.9
2022-08-20T09:39:53.709Z,34.0
2022-08-20T09:40:53.566Z,38.6
2022-08-20T09:41:53.574Z,34.6
2022-08-20T09:42:53.811Z,35.8
2022-08-20T09:43:53.620Z,35.1
2022-08-20T09:44:53.512Z,35.9
2022-08-20T09:45:53.659Z,38.1
2022-08-20T09:46:53.508Z,52.3
2022-08-20T09:51:53.682Z,43.8
2022-08-20T09:52:55.439Z,40.8
2022-08-20T09:55:56.051Z,29.4
2022-08-20T09:56:53.512Z,30.2
2022-08-20T09:57:54.080Z,24.6
2022-08-20T09:59:01.009Z,25.3
2022-08-20T09:59:59.652Z,26.3
2022-08-20T10:00:53.627Z,26.5
2022-08-20T10:01:53.610Z,20.3
2022-08-20T10:02:53.617Z,20.0
2022-08-20T10:03:53.574Z,24.1
2022-08-20T10:04:53.821Z,25.5
2022-08-20T10:06:53.618Z,21.7
2022-08-20T10:08:53.488Z,25.0
2022-08-20T10:09:53.627Z,29.5
2022-08-20T10:10:53.545Z,28.9
2022-08-20T10:11:53.523Z,29.6
2022-08-20T10:12:55.027Z,28.9
2022-08-20T10:19:53.960Z,33.1
2022-08-20T10:21:54.438Z,37.5
2022-08-20T10:23:53.548Z,38.0
2022-08-20T10:25:53.531Z,40.4
2022-08-20T10:26:57.197Z,45.5
2022-08-20T10:27:53.488Z,40.4
2022-08-20T10:28:53.753Z,37.5
2022-08-20T10:29:53.486Z,40.4
2022-08-20T10:30:53.525Z,38.5
2022-08-20T10:31:55.218Z,31.4
2022-08-20T10:32:53.643Z,29.8
2022-08-20T10:33:53.519Z,30.4
2022-08-20T10:34:53.602Z,29.4
2022-08-20T10:38:53.564Z,24.3
2022-08-20T10:39:54.940Z,21.1
2022-08-20T10:40:53.461Z,22.5
2022-08-20T10:41:53.486Z,22.0
2022-08-20T10:43:53.422Z,28.2
2022-08-20T10:44:53.551Z,38.9
2022-08-20T10:46:53.596Z,33.8
2022-08-20T10:51:53.654Z,30.7
2022-08-20T10:52:53.624Z,30.7
2022-08-20T10:53:53.519Z,25.2
2022-08-20T10:56:54.561Z,23.6
2022-08-20T10:58:53.763Z,22.1
2022-08-20T11:00:54.184Z,33.2
2022-08-20T11:04:54.879Z,27.1
2022-08-20T11:09:53.907Z,29.8
2022-08-20T11:10:53.703Z,32.9
2022-08-20T11:11:53.463Z,32.0
2022-08-20T11:12:53.608Z,25.9
2022-08-20T11:19:54.924Z,20.2
2022-08-20T11:20:53.545Z,23.0
2022-08-20T11:21:53.459Z,19.3
2022-08-20T11:22:54.541Z,20.5
2022-08-20T11:23:53.422Z,23.6
2022-08-20T11:24:54.176Z,30.5
2022-08-20T11:25:54.700Z,34.9
2022-08-20T11:26:53.584Z,32.5
2022-08-20T11:27:56.224Z,32.1
2022-08-20T11:28:53.488Z,31.4
2022-08-20T11:31:53.927Z,29.1
2022-08-20T11:33:53.460Z,33.4
2022-08-20T11:34:53.676Z,39.4
2022-08-20T11:40:53.472Z,31.7
2022-08-20T11:41:55.235Z,28.9
2022-08-20T11:44:17.443Z,32.6
2022-08-20T11:44:53.773Z,28.8
2022-08-20T11:46:53.485Z,25.6
2022-08-20T11:47:53.468Z,30.4
2022-08-20T11:48:53.380Z,28.0
2022-08-20T11:52:53.902Z,39.2
2022-08-20T11:53:53.465Z,44.1
2022-08-20T11:55:53.554Z,38.6
2022-08-20T11:56:53.458Z,41.5
2022-08-20T11:57:53.456Z,41.3
2022-08-20T11:59:55.927Z,49.6
2022-08-20T12:04:54.046Z,33.0
2022-08-20T12:05:53.445Z,33.8
2022-08-20T12:07:53.670Z,37.3
2022-08-20T12:08:53.386Z,40.0
2022-08-20T12:14:55.503Z,42.1
2022-08-20T12:15:55.712Z,39.1
2022-08-20T12:16:53.421Z,41.3
2022-08-20T12:17:54.174Z,35.4
2022-08-20T12:19:55.623Z,39.2
2022-08-20T12:21:53.402Z,33.6
2022-08-20T12:23:53.552Z,28.4
2022-08-20T12:24:54.607Z,26.0
2022-08-20T12:26:53.465Z,22.3
2022-08-20T12:28:55.736Z,23.4
2022-08-20T12:29:55.225Z,21.8
2022-08-20T12:30:53.394Z,23.9
2022-08-20T12:32:53.566Z,25.9
2022-08-20T12:37:02.872Z,28.1
2022-08-20T12:38:53.436Z,26.4
2022-08-20T12:39:57.965Z,21.9
2022-08-20T12:40:53.409Z,23.3
2022-08-20T12:41:53.376Z,25.4
2022-08-20T12:43:53.733Z,24.4
2022-08-20T12:45:53.847Z,20.4
2022-08-20T12:46:53.501Z,18.6
2022-08-20T12:47:53.613Z,32.0
2022-08-20T12:48:53.692Z,27.9
2022-08-20T12:50:53.468Z,13.6
2022-08-20T12:51:53.375Z,23.5
2022-08-20T12:52:53.386Z,23.4
2022-08-20T13:00:53.691Z,16.1
2022-08-20T13:01:54.743Z,14.7
2022-08-20T13:04:53.686Z,12.9
2022-08-20T13:09:53.576Z,8.9
2022-08-20T13:10:53.376Z,11.5
2022-08-20T13:12:53.709Z,15.0
2022-08-20T13:15:53.430Z,17.9
2022-08-20T13:16:58.230Z,19.1
2022-08-20T13:21:54.771Z,15.0
2022-08-20T13:24:53.706Z,20.3
2022-08-20T13:25:53.591Z,19.7
2022-08-20T13:26:53.667Z,16.3
2022-08-20T13:31:53.514Z,18.8
2022-08-20T13:32:53.421Z,24.1
2022-08-20T13:34:53.653Z,27.9
2022-08-20T13:36:55.472Z,16.5
2022-08-20T13:40:53.372Z,13.8
2022-08-20T13:42:53.965Z,10.7
2022-08-20T13:44:53.977Z,9.9
2022-08-20T13:47:55.855Z,27.5
2022-08-20T13:50:53.350Z,26.0
2022-08-20T13:52:53.495Z,17.2
2022-08-20T13:56:53.332Z,10.7
2022-08-20T13:59:56.290Z,13.2
2022-08-20T14:03:53.478Z,23.4
2022-08-20T14:05:54.032Z,20.5
2022-08-20T14:06:53.568Z,22.7
2022-08-20T14:08:53.406Z,26.6
2022-08-20T14:09:57.308Z,27.1
2022-08-20T14:11:53.370Z,20.3
2022-08-20T14:12:53.385Z,17.4
2022-08-20T14:13:53.302Z,12.7
2022-08-20T14:14:54.307Z,13.2
2022-08-20T14:18:53.460Z,23.7
2022-08-20T14:20:53.301Z,22.2
2022-08-20T14:21:53.311Z,23.7
2022-08-20T14:23:53.297Z,22.6
2022-08-20T14:25:53.545Z,18.5
2022-08-20T14:26:53.312Z,17.5
2022-08-20T14:27:54.354Z,19.5
2022-08-20T14:28:53.350Z,16.0
2022-08-20T14:30:53.802Z,9.8
2022-08-20T14:32:54.233Z,10.6
2022-08-20T14:34:54.020Z,19.3
2022-08-20T14:39:57.182Z,14.9
2022-08-20T14:41:53.388Z,12.8
2022-08-20T14:42:54.142Z,11.5
2022-08-20T14:44:53.760Z,8.9
2022-08-20T14:47:57.355Z,13.4
2022-08-20T14:48:53.572Z,9.4
2022-08-20T14:50:55.571Z,18.0
2022-08-20T14:52:53.815Z,21.4
2022-08-20T14:53:53.324Z,27.0
2022-08-20T14:54:53.270Z,31.0
2022-08-20T14:55:53.266Z,28.1
2022-08-20T14:57:54.408Z,31.1
2022-08-20T15:00:53.354Z,35.7
2022-08-20T15:03:53.340Z,36.7
2022-08-20T15:05:53.306Z,34.6
2022-08-20T15:07:54.386Z,36.6
2022-08-20T15:10:53.566Z,43.3
2022-08-20T15:12:53.347Z,38.5
2022-08-20T15:14:53.484Z,37.6
2022-08-20T15:15:53.997Z,37.7
2022-08-20T15:17:56.874Z,37.4
2022-08-20T15:18:58.157Z,39.4
2022-08-20T15:19:55.797Z,37.0
2022-08-20T15:20:53.329Z,39.0
2022-08-20T15:21:53.362Z,33.8
2022-08-20T15:22:54.207Z,38.1
2022-08-20T15:23:53.775Z,37.2
2022-08-20T15:25:53.596Z,35.1
2022-08-20T15:29:53.951Z,38.2
2022-08-20T15:30:53.305Z,38.8
2022-08-20T15:36:53.415Z,31.0
2022-08-20T15:37:55.006Z,34.2
2022-08-20T15:38:53.586Z,40.2
2022-08-20T15:40:53.419Z,32.8
2022-08-20T15:41:53.309Z,33.1
2022-08-20T15:45:53.635Z,31.4
2022-08-20T15:46:53.405Z,35.7
2022-08-20T15:48:00.460Z,29.5
2022-08-20T15:48:53.559Z,31.8
2022-08-20T15:51:10.271Z,29.4
2022-08-20T15:52:55.645Z,24.3
2022-08-20T15:58:02.079Z,24.1
2022-08-20T16:00:02.211Z,21.8
2022-08-20T16:01:23.963Z,28.3
2022-08-20T16:02:08.189Z,24.5
2022-08-20T16:02:59.842Z,28.3
2022-08-20T16:04:07.340Z,24.3
2022-08-20T16:05:06.557Z,26.4
2022-08-20T16:06:59.426Z,28.2
2022-08-20T16:08:59.633Z,28.7
2022-08-20T16:10:04.315Z,28.5
2022-08-20T16:12:58.578Z,26.0
2022-08-20T16:14:05.913Z,24.0
2022-08-20T16:17:03.665Z,24.9
2022-08-20T16:17:59.665Z,22.4
2022-08-20T16:18:54.775Z,18.2
2022-08-20T16:19:57.244Z,21.7
2022-08-20T16:20:56.297Z,22.0
2022-08-20T16:21:55.018Z,23.2
2022-08-20T16:23:55.534Z,15.3
2022-08-20T16:24:53.277Z,15.3
2022-08-20T16:26:09.638Z,15.8
2022-08-20T16:27:06.536Z,13.5
2022-08-20T16:29:08.794Z,12.7
2022-08-20T16:30:02.168Z,11.8
2022-08-20T16:32:01.273Z,8.5
2022-08-20T16:34:05.149Z,13.5
2022-08-20T16:35:59.748Z,13.6
2022-08-20T16:38:06.887Z,9.1
2022-08-20T16:39:02.719Z,12.7
2022-08-20T16:40:01.498Z,12.9
2022-08-20T16:42:55.437Z,15.1
2022-08-20T16:43:56.778Z,10.2
2022-08-20T16:44:57.394Z,10.9
2022-08-20T16:46:00.116Z,10.6
2022-08-20T16:47:03.005Z,13.9
2022-08-20T16:47:57.746Z,12.6
2022-08-20T16:48:58.451Z,12.1
2022-08-20T16:52:53.992Z,12.5
2022-08-20T16:53:53.503Z,12.3
2022-08-20T16:54:53.284Z,11.5
2022-08-20T16:55:54.018Z,11.0
2022-08-20T16:57:02.519Z,13.6
2022-08-20T16:58:53.300Z,9.9
2022-08-20T17:01:07.890Z,8.5
2022-08-20T17:03:53.236Z,10.1
2022-08-20T17:05:57.186Z,10.7
2022-08-20T17:08:53.808Z,8.8
2022-08-20T17:11:53.423Z,11.1
2022-08-20T17:12:57.242Z,10.6
2022-08-20T17:17:56.023Z,7.5
2022-08-20T17:21:53.390Z,5.6
2022-08-20T17:24:53.390Z,5.6
2022-08-20T17:27:10.190Z,5.5
2022-08-20T17:27:53.684Z,5.8
2022-08-20T17:28:56.882Z,6.4
2022-08-20T17:29:56.554Z,6.3
2022-08-20T17:30:53.648Z,6.2
2022-08-20T17:37:54.839Z,9.5
2022-08-20T17:41:01.515Z,8.4
2022-08-20T17:41:59.890Z,7.1
2022-08-20T17:44:01.760Z,7.5
2022-08-20T17:45:55.054Z,6.8
2022-08-20T17:46:54.536Z,6.2
2022-08-20T17:48:55.428Z,7.5
2022-08-20T17:50:03.778Z,9.1
2022-08-20T17:50:55.212Z,10.3
2022-08-20T17:51:55.462Z,8.7
2022-08-20T17:52:58.287Z,8.2
2022-08-20T17:53:57.245Z,8.8
2022-08-20T17:57:00.163Z,10.0
2022-08-20T17:57:59.380Z,9.8
2022-08-20T17:59:03.249Z,10.7
2022-08-20T18:00:02.415Z,10.0
2022-08-20T18:00:53.273Z,13.0
2022-08-20T18:01:53.773Z,10.0
2022-08-20T18:02:56.049Z,7.9
2022-08-20T18:03:54.934Z,9.0
2022-08-20T18:04:54.111Z,7.1
2022-08-20T18:06:04.401Z,9.9
2022-08-20T18:08:06.862Z,12.4
2022-08-20T18:08:58.172Z,9.0
2022-08-20T18:10:02.428Z,7.7
2022-08-20T18:11:05.096Z,7.0
2022-08-20T18:11:56.689Z,8.6
2022-08-20T18:13:02.412Z,8.1
2022-08-20T18:14:10.105Z,10.3
2022-08-20T18:15:08.264Z,9.0
2022-08-20T18:15:58.015Z,9.3
2022-08-20T18:16:59.893Z,8.9
2022-08-20T18:18:02.852Z,9.4
2022-08-20T18:19:06.847Z,7.3
2022-08-20T18:20:11.450Z,9.3
2022-08-20T18:21:11.179Z,8.4
2022-08-20T18:22:01.860Z,9.1
2022-08-20T18:23:00.234Z,30.5
2022-08-20T18:24:02.410Z,8.3
2022-08-20T18:25:02.788Z,13.4
2022-08-20T18:26:00.920Z,24.5
2022-08-20T18:26:59.397Z,19.7
2022-08-20T18:27:56.675Z,9.7
2022-08-20T18:28:59.096Z,12.0
2022-08-20T18:30:58.109Z,14.9
2022-08-20T18:33:04.888Z,16.4
2022-08-20T18:33:53.446Z,16.4
2022-08-20T18:34:53.851Z,16.4
2022-08-20T18:36:07.820Z,15.8
2022-08-20T18:37:00.963Z,15.8
2022-08-20T18:37:53.495Z,15.8
2022-08-20T18:39:02.089Z,12.9
2022-08-20T18:42:00.798Z,32.5
2022-08-20T18:44:55.073Z,39.2
2022-08-20T18:45:53.407Z,31.0
2022-08-20T18:47:53.565Z,25.8
2022-08-20T18:48:59.281Z,27.2
2022-08-20T18:50:57.655Z,33.1
2022-08-20T18:51:53.401Z,30.6
2022-08-20T18:53:03.653Z,30.7
2022-08-20T18:53:53.307Z,30.7
2022-08-20T18:54:57.334Z,23.0
2022-08-20T18:56:02.968Z,67.7
2022-08-20T18:57:11.132Z,18.0
2022-08-20T19:05:02.032Z,28.3
2022-08-20T19:06:11.166Z,19.9
2022-08-20T19:07:54.746Z,22.6
2022-08-20T19:09:04.313Z,16.7
2022-08-20T19:10:06.687Z,11.1
2022-08-20T19:11:07.292Z,12.2
2022-08-20T19:12:01.828Z,16.1
2022-08-20T19:13:15.536Z,15.8
2022-08-20T19:15:02.997Z,21.8
2022-08-20T19:17:05.081Z,27.6
2022-08-20T19:18:06.804Z,21.5
2022-08-20T19:20:57.269Z,21.9
2022-08-20T19:24:59.008Z,18.6
2022-08-20T19:25:58.255Z,20.1
2022-08-20T19:26:57.398Z,19.9
2022-08-20T19:27:54.630Z,25.4
2022-08-20T19:28:57.953Z,23.9
2022-08-20T19:30:53.628Z,22.1
2022-08-20T19:31:59.104Z,16.4
2022-08-20T19:40:53.635Z,11.4
2022-08-20T19:41:55.961Z,15.8
2022-08-20T19:42:53.782Z,12.0
2022-08-20T19:43:55.153Z,13.0
2022-08-20T19:44:55.684Z,14.1
2022-08-20T19:45:55.338Z,14.6
2022-08-20T19:46:53.825Z,13.0
2022-08-20T19:48:05.645Z,14.6
2022-08-20T19:49:12.153Z,14.7
2022-08-20T19:50:03.037Z,14.7
2022-08-20T19:51:07.958Z,13.3
2022-08-20T19:52:09.448Z,13.9
2022-08-20T19:53:06.084Z,14.2
2022-08-20T19:53:53.246Z,14.2
2022-08-20T19:54:57.964Z,12.5
2022-08-20T19:56:02.036Z,12.9
2022-08-20T19:57:04.812Z,12.2
2022-08-20T19:57:56.809Z,13.8
2022-08-20T19:59:05.445Z,15.7
2022-08-20T19:59:58.372Z,12.6
2022-08-20T20:00:54.183Z,16.8
2022-08-20T20:02:53.385Z,17.7
2022-08-20T20:04:04.550Z,18.2
2022-08-20T20:04:55.737Z,19.8
2022-08-20T20:05:57.497Z,18.9
2022-08-20T20:06:53.791Z,21.8